Time;durP1;ratioP1;P1;durP2;ratioP2;P2;SDS_P1;SDS_P2;PMS_P1;PMS_P2;Temp;Humidity;BMP_temperature;BMP_pressure;BME280_temperature;BME280_humidity;BME280_pressure;Samples;Min_cycle;Max_cycle;Signal;HPM_P1;HPM_P2
2023/12/01 00:02:10;;;;;;;27.23;10.88;;;10.80;99.90;;;;;;4955607;28;20031;-79
2023/12/01 00:04:37;;;;;;;17.88;9.52;;;10.70;99.90;;;;;;4955484;28;20023;-82
2023/12/01 00:07:04;;;;;;;19.13;9.00;;;10.80;99.90;;;;;;4955373;28;20490;-81
2023/12/01 00:09:31;;;;;;;20.55;9.98;;;10.80;99.90;;;;;;4955472;28;20126;-80
2023/12/01 00:11:57;;;;;;;23.27;9.82;;;10.80;99.90;;;;;;4955271;28;20039;-81
2023/12/01 00:14:23;;;;;;;23.40;10.63;;;10.80;99.90;;;;;;4955873;28;20395;-80
2023/12/01 00:16:49;;;;;;;22.27;10.40;;;10.80;99.90;;;;;;4955279;28;20082;-78
2023/12/01 00:19:15;;;;;;;21.20;10.48;;;10.70;99.90;;;;;;4955382;28;20027;-82
2023/12/01 00:21:41;;;;;;;20.60;9.82;;;10.70;99.90;;;;;;4955195;28;20019;-82
2023/12/01 00:24:07;;;;;;;21.48;10.65;;;10.70;99.90;;;;;;4955356;28;20094;-81
2023/12/01 00:26:33;;;;;;;28.15;10.18;;;10.70;99.90;;;;;;4955040;28;20031;-82
2023/12/01 00:29:00;;;;;;;26.48;9.52;;;10.70;99.90;;;;;;4955294;28;20039;-81
2023/12/01 00:31:26;;;;;;;17.75;8.85;;;10.70;99.90;;;;;;4938257;29;20070;-78
2023/12/01 00:33:52;;;;;;;20.25;9.48;;;10.70;99.90;;;;;;4953685;28;20043;-75
2023/12/01 00:36:18;;;;;;;16.77;8.05;;;10.80;99.90;;;;;;4954814;28;20478;-81
2023/12/01 00:38:44;;;;;;;16.75;8.25;;;10.80;99.90;;;;;;4937612;29;20035;-78
2023/12/01 00:41:10;;;;;;;19.85;9.57;;;10.80;99.90;;;;;;4937680;29;20030;-82
2023/12/01 00:43:36;;;;;;;18.08;7.85;;;10.80;99.90;;;;;;4954889;28;20422;-81
2023/12/01 00:46:04;;;;;;;19.63;9.02;;;10.80;99.90;;;;;;4937633;29;20031;-82
2023/12/01 00:48:30;;;;;;;19.20;9.35;;;10.70;99.90;;;;;;4954740;28;20472;-81
2023/12/01 00:50:57;;;;;;;19.02;10.05;;;10.70;99.90;;;;;;4954638;28;20043;-81
2023/12/01 00:53:23;;;;;;;19.40;9.88;;;10.70;99.90;;;;;;4937299;29;20043;-82
2023/12/01 00:55:49;;;;;;;16.83;7.55;;;10.70;99.90;;;;;;4954380;28;20034;-79
2023/12/01 00:58:15;;;;;;;18.60;9.45;;;10.70;99.90;;;;;;4954781;28;20031;-79
2023/12/01 01:00:41;;;;;;;22.38;9.90;;;10.70;99.90;;;;;;4953062;28;20151;-82
2023/12/01 01:03:07;;;;;;;28.88;13.60;;;10.70;99.90;;;;;;4954713;28;20038;-82
2023/12/01 01:05:33;;;;;;;16.63;8.15;;;10.70;99.90;;;;;;4949494;29;20027;-76
2023/12/01 01:07:59;;;;;;;16.60;8.00;;;10.60;99.90;;;;;;4954716;28;20502;-81
2023/12/01 01:10:25;;;;;;;16.38;8.15;;;10.60;99.90;;;;;;4953919;28;20439;-82
2023/12/01 01:12:52;;;;;;;19.17;8.75;;;10.60;99.90;;;;;;4954544;28;20047;-82
2023/12/01 01:15:18;;;;;;;20.83;10.77;;;10.60;99.90;;;;;;4954205;28;20047;-82
2023/12/01 01:17:44;;;;;;;21.65;10.60;;;10.60;99.90;;;;;;4954634;28;20071;-82
2023/12/01 01:20:10;;;;;;;24.55;14.25;;;10.60;99.90;;;;;;4953865;28;20442;-81
2023/12/01 01:22:37;;;;;;;17.58;9.90;;;10.60;99.90;;;;;;4937053;29;20114;-83
2023/12/01 01:25:06;;;;;;;21.70;11.55;;;10.60;99.90;;;;;;4937032;29;20054;-82
2023/12/01 01:27:32;;;;;;;21.17;12.32;;;10.60;99.90;;;;;;4954216;28;20031;-81
2023/12/01 01:29:58;;;;;;;18.73;12.32;;;10.50;99.90;;;;;;4954257;28;20031;-82
2023/12/01 01:32:24;;;;;;;23.02;13.18;;;10.50;99.90;;;;;;4936058;29;20403;-76
2023/12/01 01:34:50;;;;;;;21.30;12.65;;;10.60;99.90;;;;;;4936884;29;20423;-82
2023/12/01 01:37:16;;;;;;;26.50;12.23;;;10.60;99.90;;;;;;4953986;28;20488;-81
2023/12/01 01:39:42;;;;;;;27.27;15.07;;;10.60;99.90;;;;;;4936767;29;20031;-77
2023/12/01 01:42:08;;;;;;;26.80;15.15;;;10.60;99.90;;;;;;4952650;28;20023;-82
2023/12/01 01:44:35;;;;;;;25.52;14.65;;;10.60;99.90;;;;;;4952246;28;20035;-81
2023/12/01 01:47:01;;;;;;;25.00;13.75;;;10.70;99.90;;;;;;4954273;28;20119;-82
2023/12/01 01:49:27;;;;;;;25.80;13.98;;;10.70;99.90;;;;;;4936697;29;20038;-82
2023/12/01 01:51:54;;;;;;;23.25;13.52;;;10.70;99.90;;;;;;4953811;28;20020;-82
2023/12/01 01:54:24;;;;;;;34.42;20.25;;;10.70;99.90;;;;;;4952220;28;20046;-82
2023/12/01 01:56:54;;;;;;;25.67;12.80;;;10.70;99.90;;;;;;4953997;28;20034;-81
2023/12/01 01:59:21;;;;;;;30.77;17.90;;;10.60;99.90;;;;;;4924069;29;20110;-81
2023/12/01 02:01:51;;;;;;;26.75;13.15;;;10.60;99.90;;;;;;4936631;28;20031;-75
2023/12/01 02:04:17;;;;;;;28.15;12.98;;;10.50;99.90;;;;;;4936420;29;20027;-82
2023/12/01 02:10:45;;;;;;;18.83;9.88;;;10.50;99.90;;;;;;4990101;23;20072;-81
2023/12/01 02:13:14;;;;;;;52.15;37.85;;;10.40;99.90;;;;;;5013705;28;20049;-81
2023/12/01 02:15:42;;;;;;;52.25;37.95;;;10.40;99.90;;;;;;5013688;28;20025;-80
2023/12/01 02:18:30;;;;;;;37.25;22.90;;;10.50;99.90;;;;;;4997666;28;20034;-80
2023/12/01 02:20:57;;;;;;;30.13;14.45;;;10.50;99.90;;;;;;5002150;28;20030;-78
2023/12/01 02:23:23;;;;;;;27.25;13.98;;;10.40;99.90;;;;;;5011613;28;20025;-79
2023/12/01 02:25:50;;;;;;;28.92;14.00;;;10.50;99.90;;;;;;5031501;28;20029;-74
2023/12/01 02:28:16;;;;;;;21.23;11.38;;;10.50;99.90;;;;;;5031058;28;20013;-82
2023/12/01 02:30:50;;;;;;;23.83;13.13;;;10.50;99.90;;;;;;5014190;28;20032;-75
2023/12/01 02:33:17;;;;;;;28.08;14.02;;;10.40;99.90;;;;;;5031165;28;20511;-80
2023/12/01 02:35:53;;;;;;;29.38;16.33;;;10.40;99.90;;;;;;5031429;28;20025;-81
2023/12/01 02:38:19;;;;;;;25.20;12.88;;;10.30;99.90;;;;;;5018867;28;20021;-75
2023/12/01 02:40:49;;;;;;;28.70;14.45;;;10.30;99.90;;;;;;5031264;28;20384;-74
2023/12/01 02:43:16;;;;;;;23.85;12.05;;;10.20;99.90;;;;;;5013961;28;20069;-76
2023/12/01 02:45:43;;;;;;;26.63;12.02;;;10.20;99.90;;;;;;5016962;28;20491;-80
2023/12/01 02:48:10;;;;;;;25.77;14.18;;;10.20;99.90;;;;;;5017758;28;20091;-73
2023/12/01 02:50:36;;;;;;;29.08;13.70;;;10.20;99.90;;;;;;5016830;28;20038;-81
2023/12/01 02:53:05;;;;;;;22.73;11.23;;;10.20;99.90;;;;;;5016945;28;20416;-81
2023/12/01 02:55:31;;;;;;;25.25;11.65;;;10.30;99.90;;;;;;5017136;28;20027;-76
2023/12/01 02:57:57;;;;;;;27.00;11.77;;;10.30;99.90;;;;;;5034743;28;20461;-80
2023/12/01 03:00:24;;;;;;;24.65;11.35;;;10.40;99.90;;;;;;5034907;28;20030;-77
2023/12/01 03:02:51;;;;;;;21.25;10.60;;;10.40;99.90;;;;;;5031440;28;20033;-77
2023/12/01 03:05:17;;;;;;;19.77;11.70;;;10.50;99.90;;;;;;4999087;28;20017;-81
2023/12/01 03:07:43;;;;;;;24.73;11.82;;;10.50;99.90;;;;;;5009754;28;20036;-80
2023/12/01 03:10:10;;;;;;;21.83;11.82;;;10.60;99.90;;;;;;5016657;28;20049;-82
2023/12/01 03:12:37;;;;;;;23.50;12.70;;;10.60;99.90;;;;;;5034537;28;20041;-82
2023/12/01 03:15:04;;;;;;;25.23;11.82;;;10.50;99.90;;;;;;5034931;28;20033;-80
2023/12/01 03:17:31;;;;;;;21.55;11.20;;;10.50;99.90;;;;;;5017035;28;20393;-81
2023/12/01 03:19:58;;;;;;;28.10;14.10;;;10.60;99.90;;;;;;5016496;28;20116;-81
2023/12/01 03:22:24;;;;;;;26.70;14.52;;;10.60;99.90;;;;;;5016840;28;20500;-81
2023/12/01 03:24:50;;;;;;;28.67;14.55;;;10.70;99.90;;;;;;5033974;28;20029;-78
2023/12/01 03:27:19;;;;;;;25.73;13.23;;;10.70;99.90;;;;;;5016640;28;20037;-80
2023/12/01 03:29:45;;;;;;;24.95;14.32;;;10.70;99.90;;;;;;5034059;28;20029;-82
2023/12/01 03:32:12;;;;;;;38.72;24.88;;;10.60;99.90;;;;;;5016422;28;20393;-79
2023/12/01 03:34:37;;;;;;;41.40;25.90;;;10.80;99.90;;;;;;5015263;28;20029;-77
2023/12/01 03:37:03;;;;;;;28.15;16.40;;;10.80;99.90;;;;;;5016357;28;20040;-80
2023/12/01 03:39:32;;;;;;;31.58;20.17;;;10.70;99.90;;;;;;5015959;28;20057;-81
2023/12/01 03:41:58;;;;;;;32.92;19.90;;;10.70;99.90;;;;;;5016427;28;20033;-82
2023/12/01 03:44:24;;;;;;;36.38;20.50;;;10.70;99.90;;;;;;5016392;28;20515;-83
2023/12/01 03:46:50;;;;;;;31.30;19.65;;;10.60;99.90;;;;;;5016116;28;20017;-79
2023/12/01 03:49:16;;;;;;;22.80;12.25;;;10.60;99.90;;;;;;5016424;28;20044;-82
2023/12/01 03:51:42;;;;;;;29.35;14.80;;;10.90;99.90;;;;;;5016026;28;20033;-82
2023/12/01 03:54:08;;;;;;;21.98;12.07;;;11.10;99.90;;;;;;5033757;28;20477;-76
2023/12/01 03:56:36;;;;;;;29.42;13.60;;;11.30;99.90;;;;;;5033473;28;20022;-82
2023/12/01 03:59:09;;;;;;;36.08;19.63;;;11.40;99.90;;;;;;5034043;28;20028;-83
2023/12/01 04:01:37;;;;;;;17.70;9.95;;;11.80;99.90;;;;;;5033614;28;20018;-83
2023/12/01 04:04:04;;;;;;;20.98;9.80;;;11.80;99.90;;;;;;5033509;28;20053;-83
2023/12/01 04:06:32;;;;;;;21.48;12.98;;;11.90;99.90;;;;;;5033561;28;20028;-83
2023/12/01 04:09:04;;;;;;;22.98;12.73;;;12.00;99.90;;;;;;5015312;28;20451;-78
2023/12/01 04:11:31;;;;;;;14.45;6.97;;;12.10;99.90;;;;;;5033831;28;20017;-80
2023/12/01 04:13:57;;;;;;;14.65;5.70;;;12.20;99.90;;;;;;5033432;28;20048;-80
2023/12/01 04:16:24;;;;;;;12.35;5.38;;;12.50;99.90;;;;;;5033540;28;20048;-78
2023/12/01 04:18:53;;;;;;;14.80;8.20;;;12.80;99.90;;;;;;5033245;28;20029;-82
2023/12/01 04:21:19;;;;;;;16.77;7.75;;;13.00;99.90;;;;;;5015521;28;20068;-82
2023/12/01 04:23:45;;;;;;;56.72;44.60;;;13.20;99.90;;;;;;5014509;28;20056;-82
2023/12/01 04:26:12;;;;;;;39.33;31.17;;;13.40;99.90;;;;;;5015513;28;20033;-82
2023/12/01 04:28:38;;;;;;;27.08;18.75;;;13.40;99.90;;;;;;5033361;28;20032;-82
2023/12/01 04:31:05;;;;;;;19.25;11.55;;;13.50;99.90;;;;;;5033198;28;20029;-82
2023/12/01 04:33:31;;;;;;;17.23;7.57;;;13.80;99.90;;;;;;5033312;28;20477;-82
2023/12/01 04:35:57;;;;;;;13.10;5.60;;;13.70;99.90;;;;;;5033198;28;20057;-82
2023/12/01 04:38:23;;;;;;;16.15;5.53;;;13.90;99.90;;;;;;5032805;28;20495;-81
2023/12/01 04:40:50;;;;;;;12.45;5.03;;;14.00;99.90;;;;;;5032920;28;20026;-81
2023/12/01 04:43:17;;;;;;;11.20;4.32;;;14.10;99.90;;;;;;5014692;28;20039;-77
2023/12/01 04:45:43;;;;;;;14.20;5.35;;;14.40;99.90;;;;;;5032989;28;20035;-81
2023/12/01 04:48:09;;;;;;;11.35;4.80;;;14.40;99.90;;;;;;5014997;28;20116;-83
2023/12/01 04:50:44;;;;;;;5.95;3.78;;;14.40;99.90;;;;;;5033057;28;20036;-81
2023/12/01 04:53:12;;;;;;;11.27;4.85;;;14.70;99.90;;;;;;5032421;28;20032;-81
2023/12/01 04:55:38;;;;;;;10.68;6.45;;;14.60;99.90;;;;;;5032882;28;20485;-80
2023/12/01 04:58:04;;;;;;;13.07;6.22;;;14.70;99.90;;;;;;5032471;28;20127;-83
2023/12/01 05:00:30;;;;;;;15.10;6.60;;;14.60;99.90;;;;;;5032394;28;20096;-80
2023/12/01 05:02:56;;;;;;;13.15;5.68;;;14.90;99.90;;;;;;5032464;28;20041;-83
2023/12/01 05:05:26;;;;;;;18.95;8.30;;;14.90;99.90;;;;;;5032294;28;20018;-82
2023/12/01 05:07:57;;;;;;;14.50;6.18;;;14.80;99.90;;;;;;5014448;28;20030;-81
2023/12/01 05:10:27;;;;;;;15.23;5.70;;;14.80;99.90;;;;;;5031901;28;20477;-83
2023/12/01 05:12:55;;;;;;;10.75;5.53;;;14.70;99.90;;;;;;5014744;28;20033;-77
2023/12/01 05:15:25;;;;;;;12.90;7.20;;;14.60;99.90;;;;;;5032161;28;20033;-78
2023/12/01 05:17:57;;;;;;;14.98;7.05;;;14.50;99.90;;;;;;5031873;28;20035;-78
2023/12/01 05:20:25;;;;;;;17.48;9.40;;;14.40;99.90;;;;;;5032406;28;20051;-78
2023/12/01 05:23:05;;;;;;;14.00;7.28;;;14.40;99.90;;;;;;5014715;28;20037;-80
2023/12/01 05:25:36;;;;;;;21.60;9.95;;;14.60;99.90;;;;;;5032231;28;20025;-81
2023/12/01 05:28:04;;;;;;;28.65;15.45;;;14.80;99.90;;;;;;5032005;28;20037;-81
2023/12/01 05:30:33;;;;;;;40.00;21.35;;;14.90;99.90;;;;;;5031786;28;20103;-82
2023/12/01 05:32:59;;;;;;;77.70;41.67;;;15.10;99.90;;;;;;5032450;28;20028;-78
2023/12/01 05:35:26;;;;;;;104.82;52.28;;;15.40;99.90;;;;;;5031637;28;20023;-81
2023/12/01 05:37:56;;;;;;;77.68;44.88;;;15.60;99.90;;;;;;5032309;28;20114;-82
2023/12/01 05:40:26;;;;;;;57.28;31.02;;;15.90;99.90;;;;;;5031459;28;20227;-80
2023/12/01 05:42:54;;;;;;;28.42;11.30;;;15.90;99.90;;;;;;5032211;28;20051;-82
2023/12/01 05:45:22;;;;;;;16.17;8.23;;;15.90;99.90;;;;;;5032015;28;20027;-82
2023/12/01 05:47:50;;;;;;;15.52;6.38;;;15.90;99.90;;;;;;5017650;28;20068;-79
2023/12/01 05:50:21;;;;;;;14.82;8.50;;;15.90;99.90;;;;;;5025327;28;20045;-80
2023/12/01 05:52:48;;;;;;;16.25;8.32;;;15.90;99.90;;;;;;5022991;28;20021;-80
2023/12/01 05:55:16;;;;;;;18.45;10.07;;;15.80;99.90;;;;;;5027209;28;20025;-79
2023/12/01 05:57:47;;;;;;;28.38;17.95;;;15.70;99.90;;;;;;5019325;28;20049;-79
2023/12/01 06:00:18;;;;;;;30.27;19.33;;;15.70;99.90;;;;;;5013870;28;20485;-79
2023/12/01 06:02:45;;;;;;;30.13;15.77;;;15.60;99.90;;;;;;5029469;28;20056;-80
2023/12/01 06:05:15;;;;;;;29.23;14.60;;;15.60;99.90;;;;;;5021017;28;20026;-82
2023/12/01 06:07:45;;;;;;;26.45;15.25;;;15.50;99.90;;;;;;5031669;28;20036;-81
2023/12/01 06:10:12;;;;;;;30.40;19.38;;;15.50;99.90;;;;;;4985829;28;20105;-82
2023/12/01 06:12:40;;;;;;;33.92;21.13;;;15.50;99.90;;;;;;5007941;28;20102;-81
2023/12/01 06:15:09;;;;;;;32.70;19.63;;;15.60;99.90;;;;;;5001526;28;20042;-74
2023/12/01 06:17:42;;;;;;;26.73;15.10;;;15.60;99.90;;;;;;5009285;28;20473;-79
2023/12/01 06:20:16;;;;;;;25.30;13.57;;;15.60;99.90;;;;;;4996554;28;20396;-81
2023/12/01 06:22:59;;;;;;;18.38;10.13;;;15.70;99.90;;;;;;4996690;28;20046;-81
2023/12/01 06:25:29;;;;;;;;;;;15.70;99.90;;;;;;4998880;28;20053;-77
2023/12/01 06:27:59;;;;;;;22.25;10.82;;;15.70;99.90;;;;;;5002743;28;19992;-80
2023/12/01 06:30:35;;;;;;;23.20;14.48;;;15.70;99.90;;;;;;5002789;28;20355;-74
2023/12/01 06:33:02;;;;;;;25.25;14.77;;;15.70;99.90;;;;;;4989958;28;20478;-78
2023/12/01 06:35:28;;;;;;;27.88;17.10;;;15.70;99.90;;;;;;5008984;28;20377;-74
2023/12/01 06:37:54;;;;;;;29.45;17.15;;;15.70;99.90;;;;;;5006112;28;20025;-79
2023/12/01 06:40:20;;;;;;;32.75;19.08;;;15.70;99.90;;;;;;5015084;28;20030;-76
2023/12/01 06:42:52;;;;;;;35.65;21.95;;;15.70;99.90;;;;;;4996199;28;20053;-79
2023/12/01 06:45:19;;;;;;;35.92;23.02;;;15.80;99.90;;;;;;4991471;28;20024;-73
2023/12/01 06:47:48;;;;;;;43.50;25.40;;;15.80;99.90;;;;;;5006062;28;20029;-74
2023/12/01 06:50:15;;;;;;;42.10;26.95;;;15.80;99.90;;;;;;4999011;28;20580;-80
2023/12/01 06:52:43;;;;;;;45.60;26.10;;;15.80;99.90;;;;;;4996180;28;20377;-80
2023/12/01 06:55:09;;;;;;;47.53;29.38;;;15.80;99.90;;;;;;5001542;28;20026;-73
2023/12/01 06:57:38;;;;;;;46.47;28.35;;;15.80;99.90;;;;;;5015085;28;20080;-74
2023/12/01 07:00:08;;;;;;;59.15;34.38;;;15.80;99.90;;;;;;5015175;28;20066;-78
2023/12/01 07:02:37;;;;;;;59.67;39.15;;;15.80;99.90;;;;;;5014754;28;20066;-74
2023/12/01 07:05:19;;;;;;;67.50;41.53;;;15.80;99.90;;;;;;4997521;28;20021;-82
2023/12/01 07:07:47;;;;;;;67.37;43.80;;;15.80;99.90;;;;;;5014865;28;20038;-72
2023/12/01 07:10:14;;;;;;;59.15;38.17;;;15.90;99.90;;;;;;5027711;28;20293;-83
2023/12/01 07:12:40;;;;;;;50.80;32.08;;;15.90;99.90;;;;;;5034510;28;20048;-78
2023/12/01 07:15:11;;;;;;;51.65;33.67;;;15.90;99.90;;;;;;5034487;28;20025;-81
2023/12/01 07:17:40;;;;;;;49.90;31.88;;;15.90;99.90;;;;;;5034168;28;20033;-74
2023/12/01 07:20:15;;;;;;;68.13;45.40;;;16.00;99.90;;;;;;5034639;28;20033;-84
2023/12/01 07:22:44;;;;;;;77.75;48.08;;;16.00;99.90;;;;;;5034156;28;20055;-77
2023/12/01 07:25:21;;;;;;;76.78;49.10;;;16.00;99.90;;;;;;5034409;28;20026;-74
2023/12/01 07:27:52;;;;;;;97.88;66.65;;;16.10;99.90;;;;;;5016377;28;20033;-74
2023/12/01 07:30:18;;;;;;;84.65;55.05;;;16.00;99.90;;;;;;5033390;28;20052;-82
2023/12/01 07:32:45;;;;;;;79.78;50.75;;;16.10;99.90;;;;;;5034453;28;20025;-74
2023/12/01 07:35:12;;;;;;;72.45;49.35;;;16.10;99.90;;;;;;5033851;28;20029;-82
2023/12/01 07:37:39;;;;;;;72.15;49.58;;;16.10;99.90;;;;;;5034285;28;20373;-76
2023/12/01 07:40:06;;;;;;;61.05;38.58;;;16.20;99.90;;;;;;5033778;28;20401;-75
2023/12/01 07:42:32;;;;;;;72.72;43.38;;;16.30;99.90;;;;;;5034038;28;20063;-80
2023/12/01 07:44:59;;;;;;;48.97;32.60;;;16.20;99.90;;;;;;5033782;28;20029;-75
2023/12/01 07:47:25;;;;;;;43.17;29.15;;;16.30;99.90;;;;;;5034203;28;20022;-77
2023/12/01 07:49:51;;;;;;;43.78;27.90;;;16.40;99.90;;;;;;5033815;28;20018;-74
2023/12/01 07:52:17;;;;;;;34.35;21.63;;;16.50;99.90;;;;;;5033963;28;20030;-81
2023/12/01 07:54:43;;;;;;;25.15;16.25;;;16.60;99.90;;;;;;5034093;28;20100;-82
2023/12/01 07:57:09;;;;;;;22.20;11.27;;;16.70;99.90;;;;;;5033523;28;20036;-81
2023/12/01 07:59:36;;;;;;;26.08;14.05;;;16.80;99.90;;;;;;5016230;28;20025;-74
2023/12/01 08:02:02;;;;;;;34.17;21.75;;;16.90;99.90;;;;;;5033749;28;20052;-82
2023/12/01 08:04:28;;;;;;;30.85;20.38;;;16.90;99.90;;;;;;5033425;28;20068;-80
2023/12/01 08:06:57;;;;;;;33.83;21.85;;;16.90;99.90;;;;;;5027185;28;20373;-82
2023/12/01 08:09:23;;;;;;;36.85;23.63;;;17.00;99.90;;;;;;5005532;28;20076;-76
2023/12/01 08:11:49;;;;;;;39.15;23.60;;;17.00;99.90;;;;;;5023251;28;20087;-82
2023/12/01 08:14:15;;;;;;;36.83;22.17;;;17.00;99.90;;;;;;5019438;28;20033;-82
2023/12/01 08:16:42;;;;;;;46.88;25.35;;;17.00;99.90;;;;;;5021882;28;20029;-82
2023/12/01 08:19:11;;;;;;;38.58;22.00;;;17.10;99.90;;;;;;5030572;28;20445;-81
2023/12/01 08:21:37;;;;;;;35.40;20.48;;;17.20;99.90;;;;;;5003958;28;20389;-80
2023/12/01 08:24:04;;;;;;;34.47;21.58;;;17.30;99.90;;;;;;5020167;28;20049;-83
2023/12/01 08:26:31;;;;;;;31.48;19.92;;;17.40;99.90;;;;;;5024633;28;20469;-77
2023/12/01 08:28:57;;;;;;;35.45;20.45;;;17.40;99.90;;;;;;5026668;28;20042;-82
2023/12/01 08:31:24;;;;;;;35.38;21.70;;;17.50;99.90;;;;;;5023142;28;20036;-80
2023/12/01 08:33:50;;;;;;;27.38;15.45;;;17.50;99.90;;;;;;5019877;28;20124;-82
2023/12/01 08:36:18;;;;;;;30.60;14.90;;;17.60;99.90;;;;;;5023254;28;20029;-82
2023/12/01 08:38:44;;;;;;;24.38;14.10;;;17.70;99.90;;;;;;5026867;28;20045;-81
2023/12/01 08:41:10;;;;;;;24.35;13.48;;;17.80;99.90;;;;;;5023434;28;20022;-78
2023/12/01 08:43:36;;;;;;;21.55;13.15;;;18.00;99.90;;;;;;5020153;28;20469;-82
2023/12/01 08:46:02;;;;;;;27.73;17.00;;;18.00;99.90;;;;;;5029692;28;20041;-81
2023/12/01 08:48:28;;;;;;;29.10;18.42;;;18.10;99.90;;;;;;5023970;28;20029;-83
2023/12/01 08:50:55;;;;;;;29.60;20.58;;;18.20;99.90;;;;;;5003086;28;20028;-84
2023/12/01 08:53:22;;;;;;;25.13;16.38;;;18.20;99.90;;;;;;5026445;28;20034;-82
2023/12/01 08:55:49;;;;;;;36.75;19.17;;;18.20;99.90;;;;;;5023623;28;20018;-80
2023/12/01 08:58:16;;;;;;;33.70;20.25;;;18.20;99.90;;;;;;5019901;28;20030;-80
2023/12/01 09:00:42;;;;;;;36.92;20.63;;;18.30;99.90;;;;;;5003082;28;20485;-82
2023/12/01 09:03:08;;;;;;;32.40;17.73;;;18.30;99.90;;;;;;5025910;28;20109;-83
2023/12/01 09:05:33;;;;;;;21.33;11.13;;;18.30;99.90;;;;;;5007053;28;20033;-80
2023/12/01 09:08:04;;;;;;;20.08;8.45;;;18.50;99.90;;;;;;5019505;28;20493;-80
2023/12/01 09:10:30;;;;;;;12.77;5.97;;;18.50;99.90;;;;;;5019589;28;20042;-83
2023/12/01 09:12:56;;;;;;;15.25;5.68;;;18.70;99.90;;;;;;5017979;28;20028;-82
2023/12/01 09:15:22;;;;;;;14.30;5.68;;;18.70;99.90;;;;;;5031125;28;20119;-82
2023/12/01 09:17:48;;;;;;;9.13;3.95;;;18.80;99.90;;;;;;5008791;28;20048;-84
2023/12/01 09:20:14;;;;;;;8.60;3.20;;;18.90;99.90;;;;;;5007763;28;20029;-82
2023/12/01 09:22:40;;;;;;;8.57;3.72;;;19.10;99.90;;;;;;5031101;28;20030;-82
2023/12/01 09:25:06;;;;;;;8.82;3.85;;;19.10;99.90;;;;;;5019477;28;20389;-81
2023/12/01 09:27:32;;;;;;;12.82;4.95;;;19.20;99.90;;;;;;5007414;28;20421;-81
2023/12/01 09:29:58;;;;;;;16.75;7.88;;;19.10;99.90;;;;;;5025549;28;20029;-83
2023/12/01 09:32:24;;;;;;;18.30;9.07;;;19.10;99.90;;;;;;5020182;28;20025;-82
2023/12/01 09:34:50;;;;;;;18.65;9.20;;;19.10;99.90;;;;;;5030794;28;20088;-82
2023/12/01 09:37:16;;;;;;;21.80;10.88;;;19.10;99.90;;;;;;5024287;28;20109;-77
2023/12/01 09:39:42;;;;;;;26.08;12.30;;;19.10;99.90;;;;;;5025236;28;20472;-82
2023/12/01 09:42:09;;;;;;;25.83;12.60;;;19.10;99.90;;;;;;5021066;28;20171;-82
2023/12/01 09:44:38;;;;;;;24.85;10.02;;;19.20;99.90;;;;;;5030469;28;20443;-74
2023/12/01 09:47:05;;;;;;;26.10;13.18;;;19.30;99.90;;;;;;5021265;28;20087;-80
2023/12/01 09:49:35;;;;;;;23.08;10.30;;;19.30;99.90;;;;;;5031107;28;20026;-80
2023/12/01 09:52:05;;;;;;;27.70;10.88;;;19.30;99.90;;;;;;5014606;28;20529;-77
2023/12/01 09:54:31;;;;;;;25.58;12.15;;;19.40;99.90;;;;;;5024492;28;20087;-81
2023/12/01 09:56:58;;;;;;;25.33;12.27;;;19.40;99.90;;;;;;5014301;28;20503;-83
2023/12/01 09:59:24;;;;;;;22.88;12.80;;;19.40;99.90;;;;;;5032038;28;20030;-79
2023/12/01 10:01:51;;;;;;;22.95;13.07;;;19.40;99.90;;;;;;5031765;28;20508;-83
2023/12/01 10:04:19;;;;;;;23.35;11.68;;;19.50;99.90;;;;;;5031594;28;20033;-79
2023/12/01 10:06:45;;;;;;;27.42;12.48;;;19.50;99.90;;;;;;5031618;28;20017;-81
2023/12/01 10:09:12;;;;;;;25.50;12.10;;;19.60;99.90;;;;;;5031210;28;20456;-80
2023/12/01 10:11:38;;;;;;;29.95;13.48;;;19.60;99.90;;;;;;5013673;28;20021;-78
2023/12/01 10:14:07;;;;;;;33.22;18.40;;;19.60;99.90;;;;;;5031073;28;20083;-77
2023/12/01 10:16:35;;;;;;;46.80;19.73;;;19.70;99.90;;;;;;5005860;28;20402;-76
2023/12/01 10:19:06;;;;;;;35.22;21.67;;;19.70;99.90;;;;;;5028230;28;20025;-84
2023/12/01 10:21:49;;;;;;;38.47;22.40;;;19.70;99.90;;;;;;5031972;28;20034;-81
2023/12/01 10:24:22;;;;;;;32.45;20.08;;;19.70;99.90;;;;;;5031498;28;20068;-75
2023/12/01 10:26:53;;;;;;;31.60;18.63;;;19.60;99.90;;;;;;5031334;28;20465;-82
2023/12/01 10:29:35;;;;;;;33.00;18.35;;;19.70;99.90;;;;;;5029722;28;20021;-81
2023/12/01 10:32:02;;;;;;;;;;;19.80;99.90;;;;;;5012272;28;20380;-84
2023/12/01 10:34:28;;;;;;;27.75;14.98;;;19.80;99.90;;;;;;5020476;28;19905;-81
2023/12/01 10:36:55;;;;;;;17.98;8.35;;;19.90;99.90;;;;;;5029651;28;20104;-83
2023/12/01 10:39:29;;;;;;;23.13;8.55;;;20.00;99.90;;;;;;5031452;28;20083;-82
2023/12/01 10:41:58;;;;;;;17.50;9.13;;;20.30;99.90;;;;;;5031593;28;20962;-76
2023/12/01 10:44:28;;;;;;;18.10;10.13;;;20.30;99.90;;;;;;5030475;28;20037;-82
2023/12/01 10:46:55;;;;;;;19.85;8.95;;;20.60;99.90;;;;;;5018312;28;20508;-81
2023/12/01 10:49:22;;;;;;;25.33;11.45;;;21.10;99.90;;;;;;5030921;28;20026;-79
2023/12/01 10:51:52;;;;;;;24.58;12.75;;;20.90;99.90;;;;;;5018028;28;20073;-82
2023/12/01 10:54:23;;;;;;;15.90;7.07;;;21.10;99.90;;;;;;5010578;28;20030;-83
2023/12/01 10:57:04;;;;;;;15.82;7.40;;;21.30;99.90;;;;;;5024382;28;20497;-83
2023/12/01 10:59:33;;;;;;;15.43;6.15;;;21.40;99.90;;;;;;5021151;28;20022;-83
2023/12/01 11:02:00;;;;;;;14.38;6.20;;;21.30;99.90;;;;;;5011760;28;20026;-83
2023/12/01 11:04:27;;;;;;;17.52;7.50;;;21.30;99.90;;;;;;5010098;28;20046;-80
2023/12/01 11:07:02;;;;;;;19.60;10.18;;;21.20;99.90;;;;;;5026686;28;20029;-83
2023/12/01 11:09:51;;;;;;;21.52;9.25;;;21.20;99.90;;;;;;5021490;28;20045;-81
2023/12/01 11:12:31;;;;;;;14.18;5.85;;;21.10;99.90;;;;;;5034577;28;20477;-78
2023/12/01 11:15:24;;;;;;;15.65;5.80;;;21.20;99.90;;;;;;5034719;28;20088;-81
2023/12/01 11:17:50;;;;;;;13.90;5.18;;;21.20;99.90;;;;;;5034231;28;20028;-77
2023/12/01 11:20:36;;;;;;;15.30;5.75;;;21.20;99.90;;;;;;5030701;28;20037;-80
2023/12/01 11:23:24;;;;;;;13.82;6.68;;;21.10;99.90;;;;;;5035029;28;20040;-80
2023/12/01 11:25:56;;;;;;;22.52;9.93;;;21.10;99.90;;;;;;5034513;28;20472;-80
2023/12/01 11:31:16;;;;;;;45.30;28.55;;;21.10;99.90;;;;;;5034598;28;20347;-75
2023/12/01 11:33:52;;;;;;;40.20;24.23;;;21.00;99.90;;;;;;5034584;28;20029;-81
2023/12/01 11:36:22;;;;;;;16.38;8.50;;;21.00;99.90;;;;;;5034439;28;20075;-83
2023/12/01 11:42:02;;;;;;;6.22;2.95;;;21.10;99.90;;;;;;5021301;28;20036;-83
2023/12/01 11:44:34;;;;;;;11.45;3.90;;;21.20;99.90;;;;;;5021533;28;20038;-82
2023/12/01 11:47:02;;;;;;;14.07;5.18;;;21.20;99.90;;;;;;5024443;28;20038;-83
2023/12/01 11:49:32;;;;;;;21.15;10.15;;;21.20;99.90;;;;;;5009673;28;20096;-84
2023/12/01 11:52:00;;;;;;;27.30;12.27;;;21.10;99.90;;;;;;5025229;28;20021;-77
2023/12/01 11:54:27;;;;;;;41.45;23.73;;;21.10;99.90;;;;;;5021083;28;20022;-81
2023/12/01 11:56:55;;;;;;;44.28;20.70;;;21.00;99.90;;;;;;5022314;28;20428;-81
2023/12/01 11:59:22;;;;;;;37.63;19.55;;;21.00;99.90;;;;;;5027172;28;20025;-81
2023/12/01 12:01:48;;;;;;;42.42;20.75;;;20.90;99.90;;;;;;5026298;28;20083;-83
2023/12/01 12:04:16;;;;;;;44.25;24.08;;;20.90;99.90;;;;;;5033459;28;20037;-77
2023/12/01 12:06:45;;;;;;;49.97;27.15;;;20.80;99.90;;;;;;5034024;28;20084;-75
2023/12/01 12:09:17;;;;;;;34.80;19.85;;;20.70;99.90;;;;;;5033650;28;20104;-83
2023/12/01 12:11:45;;;;;;;32.55;20.60;;;20.60;99.90;;;;;;5033912;28;20105;-82
2023/12/01 12:14:12;;;;;;;33.97;16.95;;;20.60;99.90;;;;;;5033146;28;20116;-77
2023/12/01 12:16:38;;;;;;;31.40;18.80;;;20.40;99.90;;;;;;5023642;28;20037;-75
2023/12/01 12:19:04;;;;;;;32.67;20.48;;;20.30;99.90;;;;;;5033209;28;20032;-81
2023/12/01 12:21:32;;;;;;;35.80;22.58;;;20.20;99.90;;;;;;5033098;28;20057;-82
2023/12/01 12:23:59;;;;;;;37.13;23.48;;;20.10;99.90;;;;;;5020332;28;20152;-82
2023/12/01 12:26:28;;;;;;;34.88;20.73;;;20.10;99.90;;;;;;5024958;28;20091;-81
2023/12/01 12:28:58;;;;;;;28.15;17.13;;;20.00;99.90;;;;;;5026734;28;20029;-81
2023/12/01 12:31:27;;;;;;;28.80;14.65;;;19.90;99.90;;;;;;5027763;28;20033;-77
2023/12/01 12:33:53;;;;;;;29.98;17.23;;;19.90;99.90;;;;;;5033574;28;20026;-79
2023/12/01 12:36:21;;;;;;;32.40;18.77;;;19.90;99.90;;;;;;5033229;28;20049;-82
2023/12/01 12:38:48;;;;;;;24.83;16.02;;;19.90;99.90;;;;;;5033178;28;20041;-81
2023/12/01 12:41:22;;;;;;;27.75;16.67;;;19.90;99.90;;;;;;5033122;28;20029;-78
2023/12/01 12:44:02;;;;;;;25.23;13.93;;;19.90;99.90;;;;;;5032741;28;20113;-81
2023/12/01 12:46:29;;;;;;;25.63;12.07;;;20.00;99.90;;;;;;5009030;28;20041;-80